Time;durP1;ratioP1;P1;durP2;ratioP2;P2;SDS_P1;SDS_P2;PMS_P1;PMS_P2;Temp;Humidity;BMP_temperature;BMP_pressure;BME280_temperature;BME280_humidity;BME280_pressure;Samples;Min_cycle;Max_cycle;Signal;HPM_P1;HPM_P2
2023/05/29 00:01:32;;;;;;;;;;;9.50;86.80;;;;;;5011570;28;19956;-76
2023/05/29 00:04:00;;;;;;;;;;;9.50;87.10;;;;;;5021269;28;19936;-76
2023/05/29 00:06:27;;;;;;;;;;;9.40;87.70;;;;;;5010262;28;19936;-76
2023/05/29 00:08:54;;;;;;;;;;;9.40;87.40;;;;;;5013593;28;19929;-76
2023/05/29 00:11:21;;;;;;;;;;;9.40;87.90;;;;;;5014994;28;19948;-76
2023/05/29 00:13:48;;;;;;;;;;;9.40;87.60;;;;;;5015173;28;19933;-76
2023/05/29 00:16:15;;;;;;;;;;;9.30;87.90;;;;;;5014024;28;19976;-76
2023/05/29 00:18:45;;;;;;;;;;;9.30;87.80;;;;;;5018171;28;20053;-76
2023/05/29 00:21:13;;;;;;;;;;;9.30;87.70;;;;;;5018915;28;20411;-75
2023/05/29 00:23:40;;;;;;;;;;;9.30;87.20;;;;;;5017472;28;19929;-76
2023/05/29 00:26:07;;;;;;;;;;;9.20;87.70;;;;;;5018125;28;20024;-75
2023/05/29 00:28:34;;;;;;;;;;;9.20;88.00;;;;;;5008086;28;19936;-76
2023/05/29 00:31:01;;;;;;;;;;;9.20;87.90;;;;;;5018866;28;19979;-76
2023/05/29 00:33:28;;;;;;;;;;;9.20;88.50;;;;;;5011497;28;20504;-75
2023/05/29 00:35:55;;;;;;;;;;;9.30;88.40;;;;;;5016667;28;19999;-76
2023/05/29 00:38:22;;;;;;;;;;;9.30;88.70;;;;;;5013739;28;19929;-75
2023/05/29 00:40:48;;;;;;;;;;;9.20;88.50;;;;;;5024279;28;19935;-76
2023/05/29 00:43:15;;;;;;;;;;;9.20;87.70;;;;;;5010046;28;19929;-76
2023/05/29 00:45:42;;;;;;;;;;;9.10;87.40;;;;;;5023461;28;19951;-75
2023/05/29 00:48:09;;;;;;;;;;;9.00;87.80;;;;;;5040725;28;19929;-76
2023/05/29 00:50:36;;;;;;;;;;;8.90;87.70;;;;;;5019969;28;20745;-76
2023/05/29 00:53:04;;;;;;;;;;;8.90;88.40;;;;;;5021408;28;20012;-76
2023/05/29 00:55:31;;;;;;;;;;;8.80;88.50;;;;;;5008933;28;19939;-76
2023/05/29 00:57:58;;;;;;;;;;;8.80;88.60;;;;;;5015018;28;19933;-76
2023/05/29 01:00:25;;;;;;;;;;;8.70;89.60;;;;;;5011811;28;19929;-76
2023/05/29 01:02:52;;;;;;;;;;;8.70;89.60;;;;;;5014108;28;19933;-76
2023/05/29 01:05:19;;;;;;;;;;;8.70;89.80;;;;;;5020065;28;20468;-76
2023/05/29 01:07:46;;;;;;;;;;;8.70;90.70;;;;;;5021604;28;20020;-75
2023/05/29 01:10:13;;;;;;;;;;;8.70;91.10;;;;;;5022013;28;19936;-76
2023/05/29 01:12:45;;;;;;;;;;;8.70;90.70;;;;;;5014523;28;19936;-76
2023/05/29 01:15:18;;;;;;;;;;;8.60;90.80;;;;;;5026610;28;19929;-76
2023/05/29 01:18:02;;;;;;;;;;;8.60;91.10;;;;;;5021244;28;20032;-75
2023/05/29 01:20:41;;;;;;;;;;;8.60;91.50;;;;;;5039111;28;20687;-75
2023/05/29 01:23:11;;;;;;;;;;;8.60;91.00;;;;;;5023992;28;20552;-75
2023/05/29 01:25:44;;;;;;;;;;;8.60;91.40;;;;;;5019016;28;19929;-76
2023/05/29 01:28:12;;;;;;;;;;;8.60;91.60;;;;;;5016252;28;19933;-76
2023/05/29 01:30:39;;;;;;;;;;;8.60;91.80;;;;;;5020952;28;19929;-76
2023/05/29 01:33:06;;;;;;;;;;;8.60;91.80;;;;;;5021916;28;20373;-76
2023/05/29 01:35:33;;;;;;;;;;;8.60;91.90;;;;;;5021814;28;20362;-76
2023/05/29 01:38:00;;;;;;;;;;;8.70;91.70;;;;;;5022936;28;20034;-76
2023/05/29 01:40:27;;;;;;;;;;;8.60;91.80;;;;;;5026424;28;19943;-76
2023/05/29 01:42:54;;;;;;;;;;;8.70;91.50;;;;;;5027129;28;19964;-76
2023/05/29 01:45:21;;;;;;;;;;;8.60;91.80;;;;;;5010747;28;19933;-76
2023/05/29 01:47:48;;;;;;;;;;;8.60;90.70;;;;;;5020156;28;19993;-76
2023/05/29 01:50:15;;;;;;;;;;;8.60;89.90;;;;;;5018983;28;19935;-75
2023/05/29 01:52:42;;;;;;;;;;;8.60;89.90;;;;;;5017180;28;20601;-76
2023/05/29 01:55:09;;;;;;;;;;;8.60;89.70;;;;;;5031189;28;19929;-76
2023/05/29 01:57:36;;;;;;;;;;;8.60;89.80;;;;;;5026864;28;19938;-76
2023/05/29 02:00:08;;;;;;;;;;;8.60;89.50;;;;;;5026533;28;20405;-76
2023/05/29 02:02:39;;;;;;;;;;;8.50;89.60;;;;;;5021703;28;19937;-76
2023/05/29 02:05:07;;;;;;;;;;;8.50;89.20;;;;;;5012400;28;19929;-76
2023/05/29 02:07:34;;;;;;;;;;;8.40;88.80;;;;;;5033946;28;19929;-76
2023/05/29 02:10:01;;;;;;;;;;;8.40;89.00;;;;;;5020875;28;20027;-76
2023/05/29 02:12:28;;;;;;;;;;;8.30;89.20;;;;;;5017372;28;19933;-75
2023/05/29 02:14:55;;;;;;;;;;;8.30;90.00;;;;;;5022048;28;20409;-76
2023/05/29 02:17:22;;;;;;;;;;;8.30;89.80;;;;;;5025975;28;20562;-76
2023/05/29 02:19:49;;;;;;;;;;;8.20;90.60;;;;;;5015245;28;19945;-75
2023/05/29 02:22:17;;;;;;;;;;;8.20;91.40;;;;;;5022514;28;20723;-76
2023/05/29 02:24:44;;;;;;;;;;;8.20;90.20;;;;;;5021196;28;19939;-76
2023/05/29 02:27:10;;;;;;;;;;;8.20;90.50;;;;;;5024464;28;19929;-76
2023/05/29 02:29:37;;;;;;;;;;;8.20;89.90;;;;;;5013423;28;19983;-75
2023/05/29 02:32:04;;;;;;;;;;;8.10;90.10;;;;;;5020138;28;20430;-75
2023/05/29 02:34:32;;;;;;;;;;;8.10;90.90;;;;;;5015881;28;19934;-75
2023/05/29 02:36:58;;;;;;;;;;;8.10;91.60;;;;;;5035734;28;19939;-76
2023/05/29 02:39:25;;;;;;;;;;;8.00;91.60;;;;;;5016231;28;20060;-76
2023/05/29 02:41:52;;;;;;;;;;;8.00;92.00;;;;;;5022902;28;19929;-75
2023/05/29 02:44:19;;;;;;;;;;;8.00;92.30;;;;;;5023193;28;19980;-75
2023/05/29 02:46:46;;;;;;;;;;;8.10;92.30;;;;;;5015212;28;19933;-76
2023/05/29 02:49:12;;;;;;;;;;;8.10;92.80;;;;;;5017170;28;20004;-76
2023/05/29 02:51:39;;;;;;;;;;;8.10;92.50;;;;;;5016180;28;19925;-76
2023/05/29 02:54:06;;;;;;;;;;;8.10;92.70;;;;;;5025846;28;19929;-76
2023/05/29 02:56:34;;;;;;;;;;;8.10;93.10;;;;;;5020638;28;19929;-76
2023/05/29 02:59:01;;;;;;;;;;;8.10;93.10;;;;;;5017246;28;20567;-76
2023/05/29 03:01:28;;;;;;;;;;;8.20;94.10;;;;;;5022097;28;19964;-76
2023/05/29 03:03:56;;;;;;;;;;;8.20;94.10;;;;;;5010140;28;19956;-75
2023/05/29 03:06:23;;;;;;;;;;;8.30;94.40;;;;;;5037485;28;19935;-76
2023/05/29 03:08:52;;;;;;;;;;;8.30;94.30;;;;;;5012434;28;19960;-76
2023/05/29 03:11:20;;;;;;;;;;;8.30;94.20;;;;;;5020495;28;20370;-76
2023/05/29 03:13:49;;;;;;;;;;;8.40;94.60;;;;;;5026816;28;19925;-76
2023/05/29 03:16:16;;;;;;;;;;;8.40;94.50;;;;;;5020862;28;20032;-76
2023/05/29 03:18:43;;;;;;;;;;;8.40;94.40;;;;;;5017374;28;20286;-77
2023/05/29 03:21:10;;;;;;;;;;;8.40;93.80;;;;;;5018110;28;20668;-76
2023/05/29 03:23:37;;;;;;;;;;;8.40;93.40;;;;;;5020402;28;20055;-76
2023/05/29 03:26:05;;;;;;;;;;;8.40;93.60;;;;;;5013181;28;19935;-76
2023/05/29 03:28:32;;;;;;;;;;;8.50;93.80;;;;;;5022107;28;19933;-76
2023/05/29 03:30:59;;;;;;;;;;;8.50;93.30;;;;;;5039189;28;20012;-76
2023/05/29 03:33:26;;;;;;;;;;;8.40;93.10;;;;;;5022087;28;19929;-76
2023/05/29 03:35:52;;;;;;;;;;;8.50;93.30;;;;;;5015172;28;20038;-76
2023/05/29 03:38:19;;;;;;;;;;;8.50;93.40;;;;;;5007616;28;19930;-76
2023/05/29 03:40:46;;;;;;;;;;;8.50;93.40;;;;;;5019817;28;19936;-76
2023/05/29 03:43:13;;;;;;;;;;;8.50;94.20;;;;;;5019736;28;19983;-76
2023/05/29 03:45:40;;;;;;;;;;;8.50;94.00;;;;;;5020053;28;19983;-76
2023/05/29 03:48:06;;;;;;;;;;;8.50;93.80;;;;;;5012111;28;20420;-76
2023/05/29 03:50:33;;;;;;;;;;;8.50;93.30;;;;;;5022158;28;20293;-76
2023/05/29 03:53:00;;;;;;;;;;;8.50;92.70;;;;;;5014917;28;19930;-77
2023/05/29 03:55:27;;;;;;;;;;;8.50;92.70;;;;;;5008994;28;20017;-76
2023/05/29 03:57:55;;;;;;;;;;;8.50;93.20;;;;;;5014931;28;19958;-76
2023/05/29 04:00:22;;;;;;;;;;;8.50;93.70;;;;;;5012427;28;19939;-76
2023/05/29 04:02:48;;;;;;;;;;;8.50;93.30;;;;;;5018694;28;20332;-76
2023/05/29 04:05:15;;;;;;;;;;;8.50;93.50;;;;;;5015530;28;20660;-76
2023/05/29 04:07:42;;;;;;;;;;;8.50;93.90;;;;;;5012861;28;20392;-76
2023/05/29 04:10:09;;;;;;;;;;;8.50;94.30;;;;;;5016114;28;20007;-76
2023/05/29 04:12:36;;;;;;;;;;;8.60;94.50;;;;;;5023218;28;19929;-76
2023/05/29 04:15:03;;;;;;;;;;;8.60;94.40;;;;;;5016775;28;19971;-76
2023/05/29 04:17:29;;;;;;;;;;;8.60;94.20;;;;;;5014912;28;20340;-76
2023/05/29 04:19:56;;;;;;;;;;;8.70;93.90;;;;;;5014255;28;20359;-76
2023/05/29 04:22:23;;;;;;;;;;;8.70;94.00;;;;;;5010465;28;20040;-76
2023/05/29 04:24:50;;;;;;;;;;;8.70;94.20;;;;;;5015354;28;20016;-76
2023/05/29 04:27:17;;;;;;;;;;;8.80;94.00;;;;;;5017407;28;20012;-76
2023/05/29 04:29:44;;;;;;;;;;;8.80;93.90;;;;;;5015222;28;19929;-76
2023/05/29 04:32:11;;;;;;;;;;;8.80;94.10;;;;;;5012253;28;19929;-76
2023/05/29 04:34:43;;;;;;;;;;;8.80;94.00;;;;;;5021657;28;20051;-76
2023/05/29 04:37:10;;;;;;;;;;;8.90;94.00;;;;;;5023959;28;20032;-76
2023/05/29 04:39:37;;;;;;;;;;;9.00;93.80;;;;;;5011671;28;19936;-76
2023/05/29 04:42:04;;;;;;;;;;;9.10;93.90;;;;;;5016113;28;19988;-76
2023/05/29 04:44:30;;;;;;;;;;;9.10;93.80;;;;;;5024780;28;20043;-76
2023/05/29 04:46:57;;;;;;;;;;;9.20;93.50;;;;;;5022272;28;19929;-76
2023/05/29 04:49:24;;;;;;;;;;;9.20;93.10;;;;;;5025901;28;19936;-75
2023/05/29 04:51:52;;;;;;;;;;;9.30;93.00;;;;;;5013793;28;19999;-76
2023/05/29 04:54:19;;;;;;;;;;;9.40;92.50;;;;;;5019345;28;20016;-75
2023/05/29 04:56:46;;;;;;;;;;;9.50;91.40;;;;;;5018457;28;19929;-76
2023/05/29 04:59:13;;;;;;;;;;;9.60;91.40;;;;;;5021817;28;20400;-76
2023/05/29 05:01:43;;;;;;;;;;;9.70;91.00;;;;;;5012137;28;19933;-76
2023/05/29 05:04:10;;;;;;;;;;;9.70;89.80;;;;;;5015731;28;20342;-75
2023/05/29 05:06:37;;;;;;;;;;;9.80;90.00;;;;;;5017689;28;20600;-76
2023/05/29 05:09:04;;;;;;;;;;;9.90;89.00;;;;;;5023722;28;20486;-76
2023/05/29 05:11:31;;;;;;;;;;;10.00;88.30;;;;;;5014032;28;19925;-77
2023/05/29 05:13:57;;;;;;;;;;;10.10;88.70;;;;;;5020171;28;20013;-76
2023/05/29 05:16:24;;;;;;;;;;;10.20;88.20;;;;;;5016547;28;20297;-77
2023/05/29 05:18:51;;;;;;;;;;;10.30;86.60;;;;;;5013637;28;19930;-76
2023/05/29 05:21:18;;;;;;;;;;;10.40;86.10;;;;;;5013510;28;20045;-74
2023/05/29 05:23:45;;;;;;;;;;;10.40;86.20;;;;;;5016809;28;20070;-77
2023/05/29 05:26:25;;;;;;;;;;;10.50;85.40;;;;;;5020298;28;20290;-79
2023/05/29 05:28:52;;;;;;;;;;;10.60;85.20;;;;;;5025898;28;19979;-82
2023/05/29 05:31:19;;;;;;;;;;;10.70;85.20;;;;;;5024959;28;19935;-78
2023/05/29 05:33:46;;;;;;;;;;;10.70;85.70;;;;;;5017312;28;20020;-77
2023/05/29 05:36:13;;;;;;;;;;;10.80;84.60;;;;;;5028019;28;19933;-77
2023/05/29 05:38:40;;;;;;;;;;;10.90;84.50;;;;;;5022797;28;19940;-79
2023/05/29 05:41:06;;;;;;;;;;;11.00;84.60;;;;;;5021162;28;20431;-79
2023/05/29 05:43:33;;;;;;;;;;;11.10;84.10;;;;;;5017981;28;20293;-78
2023/05/29 05:46:00;;;;;;;;;;;11.10;84.10;;;;;;5019085;28;19940;-77
2023/05/29 05:48:27;;;;;;;;;;;11.20;84.10;;;;;;5016195;28;19937;-78
2023/05/29 05:50:53;;;;;;;;;;;11.30;83.70;;;;;;5013807;28;20024;-76
2023/05/29 05:53:21;;;;;;;;;;;11.40;81.60;;;;;;5017568;28;20351;-83
2023/05/29 05:55:48;;;;;;;;;;;11.50;81.80;;;;;;5024358;28;19929;-84
2023/05/29 05:58:15;;;;;;;;;;;11.70;81.30;;;;;;5022575;28;19995;-82
2023/05/29 06:00:42;;;;;;;;;;;11.80;80.50;;;;;;5021611;28;20368;-79
2023/05/29 06:03:09;;;;;;;;;;;11.90;80.20;;;;;;5018605;28;20003;-80
2023/05/29 06:05:37;;;;;;;;;;;12.00;79.50;;;;;;5021032;28;20635;-80
2023/05/29 06:08:05;;;;;;;;;;;12.20;79.50;;;;;;5025311;28;20489;-80
2023/05/29 06:10:32;;;;;;;;;;;12.40;79.10;;;;;;5012001;28;19930;-80
2023/05/29 06:12:59;;;;;;;;;;;12.70;77.60;;;;;;5024513;28;19971;-78
2023/05/29 06:15:25;;;;;;;;;;;12.90;77.10;;;;;;5015010;28;19936;-79
2023/05/29 06:17:52;;;;;;;;;;;13.20;76.70;;;;;;5018422;28;19929;-78
2023/05/29 06:20:19;;;;;;;;;;;13.40;75.70;;;;;;5018860;28;19930;-76
2023/05/29 06:22:50;;;;;;;;;;;13.80;74.20;;;;;;5014696;28;19983;-75
2023/05/29 06:25:19;;;;;;;;;;;14.00;71.60;;;;;;5016956;28;19929;-76
2023/05/29 06:27:46;;;;;;;;;;;14.10;72.40;;;;;;5016940;28;20338;-77
2023/05/29 06:30:13;;;;;;;;;;;14.30;73.90;;;;;;5021019;28;19933;-78
2023/05/29 06:32:40;;;;;;;;;;;14.50;69.50;;;;;;5012812;28;19948;-78
2023/05/29 06:35:07;;;;;;;;;;;14.50;69.80;;;;;;5016195;28;20024;-78
2023/05/29 06:37:34;;;;;;;;;;;14.80;69.30;;;;;;5016300;28;19967;-77
2023/05/29 06:40:00;;;;;;;;;;;15.10;68.10;;;;;;5012451;28;19975;-78
2023/05/29 06:42:27;;;;;;;;;;;15.10;68.90;;;;;;5019670;28;20286;-74
2023/05/29 06:44:54;;;;;;;;;;;15.30;68.40;;;;;;5020674;28;19929;-76
2023/05/29 06:47:21;;;;;;;;;;;15.40;69.80;;;;;;5017347;28;20275;-77
2023/05/29 06:49:47;;;;;;;;;;;15.70;67.50;;;;;;5014790;28;19936;-76
2023/05/29 06:52:14;;;;;;;;;;;15.90;67.20;;;;;;5013765;28;19949;-77
2023/05/29 06:54:42;;;;;;;;;;;16.10;66.70;;;;;;5015543;28;19975;-77
2023/05/29 06:57:08;;;;;;;;;;;16.50;65.50;;;;;;5017153;28;19936;-77
2023/05/29 06:59:37;;;;;;;;;;;16.50;64.80;;;;;;5014920;28;20043;-79
2023/05/29 07:02:05;;;;;;;;;;;16.30;63.30;;;;;;5014873;28;19935;-78
2023/05/29 07:04:32;;;;;;;;;;;16.40;64.50;;;;;;5018118;28;19940;-78
2023/05/29 07:06:58;;;;;;;;;;;16.60;64.60;;;;;;5015883;28;19929;-78
2023/05/29 07:09:27;;;;;;;;;;;16.50;64.30;;;;;;5016745;28;19949;-77
2023/05/29 07:11:54;;;;;;;;;;;16.40;64.40;;;;;;5012907;28;19976;-74
2023/05/29 07:14:21;;;;;;;;;;;16.80;63.90;;;;;;5017742;28;20389;-76
2023/05/29 07:16:48;;;;;;;;;;;17.30;61.50;;;;;;5022277;28;19929;-76
2023/05/29 07:19:14;;;;;;;;;;;17.30;60.80;;;;;;5019614;28;20294;-76
2023/05/29 07:21:47;;;;;;;;;;;16.90;61.80;;;;;;5018847;28;19982;-74
2023/05/29 07:24:14;;;;;;;;;;;16.60;63.40;;;;;;5021035;23;20020;-79
2023/05/29 07:26:41;;;;;;;;;;;16.50;65.50;;;;;;5001386;28;19930;-79
2023/05/29 07:29:09;;;;;;;;;;;16.90;65.90;;;;;;5002958;28;20096;-79
2023/05/29 07:31:36;;;;;;;;;;;17.10;64.20;;;;;;5003293;28;20449;-79
2023/05/29 07:34:03;;;;;;;;;;;17.10;63.70;;;;;;5001892;28;20219;-79
2023/05/29 07:36:31;;;;;;;;;;;17.60;62.60;;;;;;5004066;28;19930;-79
2023/05/29 07:38:58;;;;;;;;;;;18.00;61.50;;;;;;5004413;28;19929;-80
2023/05/29 07:41:28;;;;;;;;;;;18.20;58.90;;;;;;4994567;28;19940;-79
2023/05/29 07:43:55;;;;;;;;;;;18.10;58.40;;;;;;5002653;28;19995;-79
2023/05/29 07:46:22;;;;;;;;;;;17.90;60.00;;;;;;5003551;28;19937;-79
2023/05/29 07:48:49;;;;;;;;;;;17.90;58.60;;;;;;5006061;28;20453;-79
2023/05/29 07:51:16;;;;;;;;;;;17.60;59.40;;;;;;5003727;28;20390;-79
2023/05/29 07:53:46;;;;;;;;;;;17.70;58.00;;;;;;5001633;28;20052;-79
2023/05/29 07:56:13;;;;;;;;;;;17.70;56.20;;;;;;5018390;28;19929;-79
2023/05/29 07:58:41;;;;;;;;;;;17.40;59.20;;;;;;5007360;28;19973;-79
2023/05/29 08:01:08;;;;;;;;;;;17.50;60.50;;;;;;4999028;28;20443;-79
2023/05/29 08:03:35;;;;;;;;;;;18.00;58.80;;;;;;4999162;28;20012;-79
2023/05/29 08:06:02;;;;;;;;;;;17.90;57.20;;;;;;5003742;28;20316;-79
2023/05/29 08:08:30;;;;;;;;;;;17.90;56.90;;;;;;5003558;28;20279;-79
2023/05/29 08:10:56;;;;;;;;;;;18.60;57.80;;;;;;5001963;28;19933;-79
2023/05/29 08:13:24;;;;;;;;;;;18.90;54.00;;;;;;5003570;28;19937;-79
2023/05/29 08:15:50;;;;;;;;;;;18.50;55.90;;;;;;4994199;28;19933;-79
2023/05/29 08:18:17;;;;;;;;;;;18.30;54.90;;;;;;5007223;28;19929;-79
2023/05/29 08:20:44;;;;;;;;;;;18.20;56.90;;;;;;5002782;28;20419;-79
2023/05/29 08:23:11;;;;;;;;;;;18.80;57.20;;;;;;5006081;28;19930;-79
2023/05/29 08:25:38;;;;;;;;;;;19.30;53.50;;;;;;5003019;28;21138;-79
2023/05/29 08:28:05;;;;;;;;;;;19.30;54.40;;;;;;4999399;28;20408;-79
2023/05/29 08:30:31;;;;;;;;;;;19.80;53.50;;;;;;5007060;28;19929;-79
2023/05/29 08:32:58;;;;;;;;;;;19.90;52.30;;;;;;5007491;28;19936;-79
2023/05/29 08:35:25;;;;;;;;;;;20.20;51.20;;;;;;5006176;28;20332;-79
2023/05/29 08:37:52;;;;;;;;;;;20.60;49.30;;;;;;5007477;28;19929;-79
2023/05/29 08:40:19;;;;;;;;;;;21.10;50.00;;;;;;5007219;28;19930;-79
2023/05/29 08:43:05;;;;;;;;;;;21.00;48.60;;;;;;5003403;28;20383;-80
2023/05/29 08:45:33;;;;;;;;;;;20.90;47.80;;;;;;5002851;28;20050;-79
2023/05/29 08:48:01;;;;;;;;;;;20.90;48.50;;;;;;5006828;28;19936;-79
2023/05/29 08:50:28;;;;;;;;;;;20.90;49.70;;;;;;5005285;28;19929;-79
2023/05/29 08:52:56;;;;;;;;;;;20.80;47.40;;;;;;5005238;28;20019;-79
2023/05/29 08:55:22;;;;;;;;;;;20.40;48.30;;;;;;5006320;28;19929;-79
2023/05/29 08:57:50;;;;;;;;;;;20.00;50.40;;;;;;5006005;28;20221;-79
2023/05/29 09:00:19;;;;;;;;;;;20.40;50.10;;;;;;5005351;28;19933;-78
2023/05/29 09:02:46;;;;;;;;;;;20.40;49.50;;;;;;5021364;28;20432;-79
2023/05/29 09:05:14;;;;;;;;;;;20.40;49.10;;;;;;5006596;28;19933;-80
2023/05/29 09:07:40;;;;;;;;;;;20.50;48.20;;;;;;5004971;28;19930;-79
2023/05/29 09:10:08;;;;;;;;;;;20.70;48.00;;;;;;5006126;28;19929;-79
2023/05/29 09:12:35;;;;;;;;;;;20.60;49.70;;;;;;5000851;28;20477;-79
2023/05/29 09:15:02;;;;;;;;;;;20.70;48.40;;;;;;5005040;28;20397;-79
2023/05/29 09:17:33;;;;;;;;;;;20.90;46.50;;;;;;5005051;28;19929;-80
2023/05/29 09:20:00;;;;;;;;;;;20.80;47.40;;;;;;5007482;28;19930;-80
2023/05/29 09:22:27;;;;;;;;;;;21.10;46.10;;;;;;4999114;28;20667;-80
2023/05/29 09:24:54;;;;;;;;;;;20.90;47.40;;;;;;5003875;28;19972;-79
2023/05/29 09:27:21;;;;;;;;;;;21.00;47.40;;;;;;5005761;28;19933;-79
2023/05/29 09:29:48;;;;;;;;;;;21.50;48.00;;;;;;5006225;28;19929;-79
2023/05/29 09:32:16;;;;;;;;;;;21.90;45.80;;;;;;5005795;28;19937;-79
2023/05/29 09:34:43;;;;;;;;;;;21.70;46.00;;;;;;5004887;28;19940;-79
2023/05/29 09:37:11;;;;;;;;;;;21.50;46.30;;;;;;5005947;28;19976;-79
2023/05/29 09:39:47;;;;;;;;;;;21.60;47.30;;;;;;5004103;28;19946;-79
2023/05/29 09:42:14;;;;;;;;;;;21.80;47.20;;;;;;5006162;28;19930;-79
2023/05/29 09:44:41;;;;;;;;;;;22.00;46.30;;;;;;5005731;28;19976;-79
2023/05/29 09:47:08;;;;;;;;;;;22.60;45.60;;;;;;5004580;28;19929;-79
2023/05/29 09:49:40;;;;;;;;;;;22.70;44.70;;;;;;5000778;28;19936;-79
2023/05/29 09:52:08;;;;;;;;;;;22.70;45.50;;;;;;5005389;28;19933;-79
2023/05/29 09:54:35;;;;;;;;;;;22.40;44.20;;;;;;5005566;28;19933;-78
2023/05/29 09:57:03;;;;;;;;;;;22.40;43.70;;;;;;4996211;28;19929;-79
2023/05/29 09:59:31;;;;;;;;;;;22.00;42.70;;;;;;5004794;28;19929;-79
2023/05/29 10:02:04;;;;;;;;;;;22.20;42.80;;;;;;5005520;28;19930;-80
2023/05/29 10:04:35;;;;;;;;;;;22.00;43.90;;;;;;5007492;28;19929;-79
2023/05/29 10:07:06;;;;;;;;;;;22.20;43.80;;;;;;4995080;28;20024;-80
2023/05/29 10:09:34;;;;;;;;;;;22.40;41.30;;;;;;5005018;28;19929;-80
2023/05/29 10:12:04;;;;;;;;;;;22.60;41.60;;;;;;4997513;28;19997;-80
2023/05/29 10:14:32;;;;;;;;;;;22.60;40.80;;;;;;5003240;28;20012;-80
2023/05/29 10:17:00;;;;;;;;;;;22.60;41.70;;;;;;5007945;28;19951;-80
2023/05/29 10:19:30;;;;;;;;;;;22.50;41.70;;;;;;5008145;28;20460;-80
2023/05/29 10:21:57;;;;;;;;;;;22.60;41.60;;;;;;5003826;28;19992;-79
2023/05/29 10:24:24;;;;;;;;;;;23.00;40.80;;;;;;5002028;28;19933;-80
2023/05/29 10:26:52;;;;;;;;;;;23.00;40.30;;;;;;5008107;28;19936;-80
2023/05/29 10:29:18;;;;;;;;;;;22.60;40.00;;;;;;5004040;28;20293;-80
2023/05/29 10:31:57;;;;;;;;;;;22.90;40.40;;;;;;4996824;28;19930;-79
2023/05/29 10:34:43;;;;;;;;;;;22.90;40.70;;;;;;5004750;28;20484;-80
2023/05/29 10:37:18;;;;;;;;;;;22.20;40.70;;;;;;5003668;28;20374;-79
2023/05/29 10:39:44;;;;;;;;;;;21.90;39.90;;;;;;4994234;28;20333;-80
2023/05/29 10:42:34;;;;;;;;;;;22.60;41.20;;;;;;5002296;28;19983;-79
2023/05/29 10:45:01;;;;;;;;;;;23.10;40.90;;;;;;5006651;28;20343;-79
2023/05/29 10:47:28;;;;;;;;;;;22.60;41.40;;;;;;5004587;28;19976;-82
2023/05/29 10:49:59;;;;;;;;;;;23.50;40.40;;;;;;5010250;28;19929;-80
2023/05/29 10:52:26;;;;;;;;;;;23.70;40.20;;;;;;5008536;28;19929;-81
2023/05/29 10:54:54;;;;;;;;;;;23.30;39.80;;;;;;5002503;28;20029;-81
2023/05/29 10:57:22;;;;;;;;;;;23.60;40.00;;;;;;5004909;28;20300;-81
2023/05/29 10:59:57;;;;;;;;;;;23.50;37.40;;;;;;5007365;28;19933;-79
2023/05/29 11:02:24;;;;;;;;;;;23.30;37.50;;;;;;4999492;28;20418;-79
2023/05/29 11:05:17;;;;;;;;;;;23.70;38.80;;;;;;5009326;28;19933;-80
2023/05/29 11:07:53;;;;;;;;;;;24.10;38.00;;;;;;5007857;28;19930;-80
2023/05/29 11:10:39;;;;;;;;;;;23.90;37.30;;;;;;5003742;28;19935;-79
2023/05/29 11:13:07;;;;;;;;;;;23.20;39.00;;;;;;5004035;28;20586;-78
2023/05/29 11:15:34;;;;;;;;;;;23.10;39.20;;;;;;5003346;28;20365;-79
2023/05/29 11:18:11;;;;;;;;;;;23.30;37.20;;;;;;5029603;28;20393;-79
2023/05/29 11:20:51;;;;;;;;;;;23.60;38.20;;;;;;5020384;28;19973;-79
2023/05/29 11:23:18;;;;;;;;;;;24.40;36.70;;;;;;5006526;28;19929;-79
2023/05/29 11:25:48;;;;;;;;;;;24.50;35.30;;;;;;5006077;28;20545;-78
2023/05/29 11:28:15;;;;;;;;;;;25.00;34.20;;;;;;5000703;28;20717;-78
2023/05/29 11:30:46;;;;;;;;;;;25.50;34.30;;;;;;5005499;28;19980;-79
2023/05/29 11:33:23;;;;;;;;;;;25.20;33.40;;;;;;5005777;28;19980;-82
2023/05/29 11:35:55;;;;;;;;;;;25.50;34.10;;;;;;5004988;28;20015;-80
2023/05/29 11:38:22;;;;;;;;;;;25.60;32.30;;;;;;5009052;28;19929;-80
2023/05/29 11:40:49;;;;;;;;;;;25.40;34.70;;;;;;5008966;28;20031;-80
2023/05/29 11:43:15;;;;;;;;;;;25.20;34.80;;;;;;5008215;28;20448;-78
2023/05/29 11:45:45;;;;;;;;;;;25.30;34.70;;;;;;5002899;28;20008;-78
2023/05/29 11:48:12;;;;;;;;;;;25.30;34.30;;;;;;4996881;28;20379;-79
2023/05/29 11:50:38;;;;;;;;;;;24.60;34.50;;;;;;5002548;28;20726;-78
2023/05/29 11:53:06;;;;;;;;;;;24.20;33.80;;;;;;5004886;28;19936;-78
2023/05/29 11:55:33;;;;;;;;;;;23.90;34.70;;;;;;5004981;28;19957;-78
2023/05/29 11:58:00;;;;;;;;;;;24.50;34.40;;;;;;5005584;28;20028;-78
2023/05/29 12:00:31;;;;;;;;;;;24.50;34.70;;;;;;5003967;28;20690;-78
2023/05/29 12:02:58;;;;;;;;;;;24.90;35.50;;;;;;5005442;28;20024;-78
2023/05/29 12:05:25;;;;;;;;;;;24.90;34.50;;;;;;5001599;28;19929;-79
2023/05/29 12:07:53;;;;;;;;;;;24.30;34.30;;;;;;5002121;28;20309;-78
2023/05/29 12:10:21;;;;;;;;;;;24.60;34.90;;;;;;5006487;28;19929;-78
2023/05/29 12:12:54;;;;;;;;;;;24.70;33.30;;;;;;5004562;28;20020;-78
2023/05/29 12:15:22;;;;;;;;;;;24.60;33.40;;;;;;5004199;28;20652;-79
2023/05/29 12:17:50;;;;;;;;;;;24.10;33.80;;;;;;4998038;28;20374;-78
2023/05/29 12:20:17;;;;;;;;;;;24.30;34.20;;;;;;4998016;28;19930;-78
2023/05/29 12:22:45;;;;;;;;;;;24.60;34.10;;;;;;5012216;28;20509;-78
2023/05/29 12:25:12;;;;;;;;;;;24.50;34.20;;;;;;5005612;28;20319;-79
2023/05/29 12:27:43;;;;;;;;;;;24.50;34.00;;;;;;5002018;28;19929;-78
2023/05/29 12:30:10;;;;;;;;;;;24.90;34.60;;;;;;5004575;28;19936;-79
2023/05/29 12:32:47;;;;;;;;;;;24.70;33.80;;;;;;4997408;28;20402;-78
2023/05/29 12:35:18;;;;;;;;;;;24.60;34.40;;;;;;5006529;28;19930;-79
2023/05/29 12:37:46;;;;;;;;;;;24.40;34.20;;;;;;5006914;28;19999;-78
2023/05/29 12:40:16;;;;;;;;;;;24.40;33.50;;;;;;5005671;28;19937;-78
2023/05/29 12:42:43;;;;;;;;;;;23.90;33.20;;;;;;5002697;28;19926;-78
2023/05/29 12:45:10;;;;;;;;;;;24.10;34.20;;;;;;5005475;28;19930;-78
2023/05/29 12:47:37;;;;;;;;;;;24.30;34.20;;;;;;5003066;28;19976;-78
2023/05/29 12:50:15;;;;;;;;;;;24.10;34.50;;;;;;4995907;28;19937;-78
2023/05/29 12:52:41;;;;;;;;;;;24.40;34.80;;;;;;5001066;28;19935;-79
2023/05/29 12:55:08;;;;;;;;;;;24.70;33.10;;;;;;5002476;28;20012;-78
2023/05/29 12:57:35;;;;;;;;;;;24.70;34.10;;;;;;5005426;28;19930;-78
2023/05/29 13:00:02;;;;;;;;;;;24.60;34.20;;;;;;5005169;28;19929;-78
2023/05/29 13:02:29;;;;;;;;;;;24.50;33.70;;;;;;4989211;28;19930;-76
2023/05/29 13:04:56;;;;;;;;;;;24.30;33.70;;;;;;5005964;28;20044;-78
2023/05/29 13:07:23;;;;;;;;;;;24.80;33.40;;;;;;5008065;28;20037;-78
2023/05/29 13:09:50;;;;;;;;;;;24.60;32.40;;;;;;5000619;28;19930;-78
2023/05/29 13:12:16;;;;;;;;;;;23.80;33.50;;;;;;5008536;28;20775;-78
2023/05/29 13:14:43;;;;;;;;;;;23.60;35.40;;;;;;4998520;28;20734;-77
2023/05/29 13:17:10;;;;;;;;;;;23.60;35.00;;;;;;5022167;28;20028;-77
2023/05/29 13:19:37;;;;;;;;;;;23.80;35.30;;;;;;5007716;28;20587;-78
2023/05/29 13:22:04;;;;;;;;;;;23.80;34.20;;;;;;5006273;28;20011;-78
2023/05/29 13:24:31;;;;;;;;;;;23.90;34.70;;;;;;5007081;28;19983;-78
2023/05/29 13:27:00;;;;;;;;;;;23.60;35.20;;;;;;5007668;28;19941;-78
2023/05/29 13:29:27;;;;;;;;;;;24.00;35.10;;;;;;5003455;28;20387;-78
2023/05/29 13:31:54;;;;;;;;;;;24.00;35.20;;;;;;5007934;28;19980;-78
2023/05/29 13:34:22;;;;;;;;;;;24.00;33.70;;;;;;5008150;28;20034;-78
2023/05/29 13:36:49;;;;;;;;;;;24.10;33.60;;;;;;5005466;28;20000;-78
2023/05/29 13:39:16;;;;;;;;;;;23.70;34.70;;;;;;5007678;28;19984;-78
2023/05/29 13:41:42;;;;;;;;;;;24.00;34.80;;;;;;5008042;28;19930;-78
2023/05/29 13:44:09;;;;;;;;;;;23.90;34.70;;;;;;5007779;28;19960;-78
2023/05/29 13:46:37;;;;;;;;;;;24.20;35.00;;;;;;5003050;28;20240;-78
2023/05/29 13:49:04;;;;;;;;;;;24.40;34.70;;;;;;5004458;28;19929;-78
2023/05/29 13:51:30;;;;;;;;;;;24.30;34.80;;;;;;5005009;28;19930;-78
2023/05/29 13:53:57;;;;;;;;;;;24.30;34.30;;;;;;5008069;28;19929;-78
2023/05/29 13:56:26;;;;;;;;;;;24.40;34.40;;;;;;5008295;28;20297;-77
2023/05/29 13:58:54;;;;;;;;;;;24.60;34.30;;;;;;5007806;28;19999;-78
2023/05/29 14:01:24;;;;;;;;;;;24.10;34.20;;;;;;5007214;28;20018;-78
2023/05/29 14:03:51;;;;;;;;;;;24.40;34.80;;;;;;5001254;28;19929;-78
2023/05/29 14:06:17;;;;;;;;;;;24.30;34.40;;;;;;5000102;28;19925;-78
2023/05/29 14:08:44;;;;;;;;;;;24.20;34.80;;;;;;5006683;28;19929;-77
2023/05/29 14:11:11;;;;;;;;;;;24.00;35.30;;;;;;5009765;28;20705;-77
2023/05/29 14:13:38;;;;;;;;;;;24.00;35.20;;;;;;5008404;28;19965;-77
2023/05/29 14:16:05;;;;;;;;;;;23.50;35.90;;;;;;5000726;28;20016;-77
2023/05/29 14:18:31;;;;;;;;;;;23.50;37.10;;;;;;5006761;28;19934;-77
2023/05/29 14:20:58;;;;;;;;;;;23.60;35.60;;;;;;4996255;28;19930;-77
2023/05/29 14:23:25;;;;;;;;;;;23.60;35.80;;;;;;5006827;28;19937;-77
2023/05/29 14:25:52;;;;;;;;;;;23.80;35.50;;;;;;5006246;28;20421;-78